Latest Weather Observations for Badgerys Creek

IDN60901

Issued at 8:51 am EST Wednesday 18 September 2019 (issued every 10 minutes, with the page automatically refreshed every 10 minutes)

About weather observations | Map of Sydney area stations | Latest observations for Sydney area | Other Formats
Station Details ID: 067108 Name: BADGERYS CREEK AWS Lat: -33.90 Lon: 150.73 Height: 81.2 m
Data from the previous 72 hours. | See also: Recent months at Badgerys Creek
Date/Time
EST
Temp
°C
App
Temp
°C
Dew
Point
°C
Rel
Hum
%
Delta-T
°C
Wind Press
QNH
hPa
Press
MSL
hPa
Rain since
9am
mm
Dir  Spd
km/h
Gust
km/h
Spd
kts
Gust
kts
18/08:30am 12.1 8.3 11.3 95 0.4 SSW 22 33 12 18 1026.6 1026.6 37.4
18/08:00am 11.8 8.4 11.3 97 0.3 SSW 20 26 11 14 1026.5 1026.5 37.2
18/07:30am 11.5 8.0 11.0 97 0.3 SSW 20 30 11 16 1026.4 1026.4 37.0
18/07:00am 11.1 7.6 10.8 98 0.2 SW 20 26 11 14 1026.1 1026.1 36.6
18/06:30am 10.9 6.6 10.6 98 0.2 SW 24 32 13 17 1025.7 1025.7 36.4
18/06:00am 10.9 6.5 10.4 97 0.3 SW 24 32 13 17 1025.7 1025.7 36.2
18/05:30am 10.6 6.9 10.0 96 0.3 SW 20 28 11 15 1025.5 1025.5 36.0
18/05:00am 10.7 6.1 9.5 92 0.6 SW 24 32 13 17 1025.1 1025.1 36.0
18/04:30am 10.7 6.5 9.8 94 0.5 SW 22 35 12 19 1025.1 1025.1 35.8
18/04:00am 10.6 6.0 9.8 95 0.4 SW 24 32 13 17 1024.8 1024.8 35.6
18/03:30am 10.2 6.4 9.9 98 0.2 SW 20 32 11 17 1024.8 1024.8 35.4
18/03:00am 10.1 6.5 9.8 98 0.2 SW 19 28 10 15 1024.8 1024.8 35.2
18/02:30am 10.6 6.6 9.2 91 0.7 SSW 20 30 11 16 1024.9 1024.9 34.6
18/02:00am 11.3 7.2 8.5 83 1.4 SSW 20 28 11 15 1024.9 1024.9 34.4
18/01:30am 12.3 8.7 6.8 69 2.6 SW 15 20 8 11 1024.9 1024.9 34.4
18/01:00am 13.0 8.7 7.0 67 2.9 SSW 19 33 10 18 1024.8 1024.8 34.4
18/12:30am 13.1 8.7 7.3 68 2.8 S 20 43 11 23 1024.8 1024.8 34.4
18/12:00am 13.1 8.3 7.5 69 2.7 SSW 22 33 12 18 1024.6 1024.6 34.4
 
Date/Time
EST
Temp
°C
App
Temp
°C
Dew
Point
°C
Rel
Hum
%
Delta-T
°C
Wind Press
QNH
hPa
Press
MSL
hPa
Rain since
9am
mm
Dir  Spd
km/h
Gust
km/h
Spd
kts
Gust
kts
17/11:30pm 13.1 8.7 7.5 69 2.7 SSW 20 33 11 18 1024.8 1024.8 34.4
17/11:00pm 12.8 9.2 8.3 74 2.2 SSW 17 30 9 16 1025.0 1025.0 34.4
17/10:30pm 12.6 9.0 8.5 76 2.0 SSW 17 30 9 16 1025.3 1025.3 34.4
17/10:00pm 13.4 9.6 7.6 68 2.8 S 17 24 9 13 1025.4 1025.4 34.4
17/09:30pm 13.2 8.5 7.9 70 2.6 S 22 33 12 18 1025.2 1025.2 34.4
17/09:00pm 13.4 8.8 8.3 71 2.5 S 22 35 12 19 1025.1 1025.1 34.4
17/08:30pm 13.3 9.3 8.2 71 2.5 S 19 32 10 17 1025.2 1025.2 34.4
17/08:00pm 13.1 10.0 9.0 76 2.1 S 15 20 8 11 1025.0 1025.0 34.4
17/07:30pm 12.7 9.1 9.7 82 1.5 S 19 33 10 18 1024.4 1024.4 34.4
17/07:00pm 12.1 8.6 11.0 93 0.6 S 20 32 11 17 1024.2 1024.1 34.4
17/06:30pm 11.9 9.3 11.9 100 0.0 S 17 22 9 12 1023.8 1023.7 34.2
17/06:00pm 11.7 8.1 11.7 100 0.0 SSW 22 30 12 16 1023.3 1023.2 32.8
17/05:30pm 11.9 8.9 11.9 100 0.0 SSW 19 28 10 15 1022.9 1022.8 30.8
17/05:00pm 11.9 9.3 11.9 100 0.0 SSW 17 22 9 12 1022.4 1022.3 28.0
17/04:30pm 11.8 9.9 11.8 100 0.0 SSW 13 20 7 11 1022.2 1022.1 24.8
17/04:00pm 11.4 8.6 11.4 100 0.0 SW 17 20 9 11 1021.9 1021.8 23.6
17/03:30pm 10.8 8.2 10.8 100 0.0 SW 15 20 8 11 1021.8 1021.7 22.2
17/03:00pm 10.3 6.8 10.3 100 0.0 WSW 19 24 10 13 1021.6 1021.5 19.8
17/02:30pm 10.0 5.8 9.9 99 0.1 SW 22 30 12 16 1021.5 1021.4 17.6
17/02:00pm 9.8 6.2 9.7 99 0.1 WSW 19 22 10 12 1021.7 1021.6 16.0
17/01:30pm 10.0 6.2 9.9 99 0.1 WSW 20 28 11 15 1022.0 1021.9 14.6
17/01:00pm 10.0 6.8 9.9 99 0.1 SW 17 22 9 12 1021.9 1021.8 13.4
17/12:30pm 9.7 5.8 9.6 99 0.1 WSW 20 24 11 13 1021.9 1021.8 12.6
17/12:00pm 9.3 5.5 9.2 99 0.0 WSW 19 24 10 13 1022.1 1022.0 11.6
17/11:30am 9.4 5.7 9.3 99 0.0 WSW 19 22 10 12 1022.5 1022.4 10.0
17/11:00am 8.9 5.0 8.8 99 0.0 SW 19 24 10 13 1022.2 1022.1 8.4
17/10:30am 8.6 5.0 8.5 99 0.0 WSW 17 20 9 11 1022.6 1022.5 6.4
17/10:00am 8.1 5.2 8.0 99 0.0 SW 13 17 7 9 1023.0 1022.9 4.6
17/09:30am 8.0 3.3 7.9 99 0.0 WSW 22 28 12 15 1023.1 1023.0 1.6
17/09:00am 7.9 3.8 7.8 99 0.0 SW 19 24 10 13 1023.1 1023.0 19.0
17/08:30am 7.6 2.8 7.5 99 0.0 SW 22 28 12 15 1023.2 1023.1 17.6
17/08:00am 7.5 3.3 7.4 99 0.0 SW 19 24 10 13 1023.2 1023.1 16.2
17/07:30am 7.5 3.1 7.2 98 0.1 SW 20 26 11 14 1023.1 1023.0 14.2
17/07:00am 7.5 3.1 7.2 98 0.1 WSW 20 26 11 14 1023.0 1022.9 12.2
17/06:30am 7.3 2.8 6.9 97 0.2 WSW 20 26 11 14 1022.7 1022.6 11.0
17/06:00am 7.2 2.2 6.6 96 0.3 WSW 22 30 12 16 1022.1 1022.0 10.0
17/05:30am 7.4 2.9 6.8 96 0.3 WSW 20 26 11 14 1021.8 1021.7 9.0
17/05:00am 7.5 3.9 6.8 95 0.3 SW 15 20 8 11 1021.7 1021.6 8.2
17/04:30am 7.6 3.6 6.5 93 0.5 SW 17 24 9 13 1021.8 1021.7 8.0
17/04:00am 7.8 3.4 6.6 92 0.6 SW 19 24 10 13 1021.9 1021.8 7.2
17/03:30am 8.0 4.0 6.6 91 0.6 SW 17 24 9 13 1021.8 1021.7 6.4
17/03:00am 8.1 4.2 7.2 94 0.4 SW 17 22 9 12 1022.0 1021.9 6.2
17/02:30am 8.6 5.3 8.0 96 0.3 SW 15 20 8 11 1022.0 1021.9 6.0
17/02:00am 8.8 5.9 8.0 95 0.4 SW 13 19 7 10 1021.7 1021.6 6.0
17/01:30am 9.1 5.0 8.6 97 0.2 SSW 20 32 11 17 1021.9 1021.8 5.2
17/01:00am 9.5 5.7 9.2 98 0.1 SSW 19 28 10 15 1022.2 1022.1 4.6
17/12:30am 10.1 7.7 10.0 99 0.1 S 13 20 7 11 1022.2 1022.1 3.6
17/12:00am 10.7 8.8 10.5 99 0.1 SSW 11 17 6 9 1022.5 1022.4 2.4
 
Date/Time
EST
Temp
°C
App
Temp
°C
Dew
Point
°C
Rel
Hum
%
Delta-T
°C
Wind Press
QNH
hPa
Press
MSL
hPa
Rain since
9am
mm
Dir  Spd
km/h
Gust
km/h
Spd
kts
Gust
kts
16/11:30pm 10.9 9.4 10.7 99 0.1 S 9 15 5 8 1022.3 1022.2 1.2
16/11:00pm 11.2 8.9 10.6 96 0.3 SSW 13 20 7 11 1022.1 1022.0 0.8
16/10:30pm 12.1 10.1 10.3 89 0.9 S 11 20 6 11 1022.3 1022.2 0.2
16/10:00pm 13.2 11.4 10.7 85 1.3 S 11 20 6 11 1021.7 1021.6 0.0
16/09:30pm 13.0 11.8 12.7 98 0.2 S 11 17 6 9 1021.2 1021.1 0.0
16/09:00pm 13.1 13.1 12.5 96 0.3 SE 4 11 2 6 1021.5 1021.4 0.0
16/08:30pm 14.5 12.5 10.1 75 2.3 S 11 17 6 9 1021.2 1021.1 0.0
16/08:00pm 14.9 12.1 9.9 72 2.6 SSE 15 22 8 12 1020.6 1020.5 0.0
16/07:30pm 15.1 13.4 9.7 70 2.8 S 9 15 5 8 1020.2 1020.1 0.0
16/07:00pm 15.2 12.7 9.8 70 2.8 S 13 17 7 9 1020.1 1020.0 0.0
16/06:30pm 15.5 13.5 10.1 70 2.8 S 11 19 6 10 1019.9 1019.8 0.0
16/06:00pm 15.7 13.0 10.5 71 2.8 S 15 28 8 15 1018.9 1018.8 0.0
16/05:30pm 15.9 13.2 10.4 70 2.9 S 15 26 8 14 1018.5 1018.4 0.0
16/05:00pm 16.2 13.6 10.7 70 2.9 SSE 15 26 8 14 1017.6 1017.5 0.0
16/04:30pm 16.6 13.1 10.9 69 3.1 SSE 20 30 11 16 1016.6 1016.6 0.0
16/04:00pm 17.2 13.9 11.0 67 3.3 SSE 19 28 10 15 1016.4 1016.4 0.0
16/03:30pm 18.0 14.6 11.1 64 3.8 SSE 20 39 11 21 1014.7 1014.7 0.0
16/03:00pm 20.0 15.3 10.7 55 5.1 SE 26 43 14 23 1013.6 1013.5 0.0
16/02:37pm 23.6 20.4 6.8 34 8.7 NNE 13 41 7 22 1013.0 1012.9 0.0
16/02:30pm 29.4 25.0 -5.4 10 15.1 N 9 15 5 8 1012.0 1011.9 0.0
16/02:00pm 28.9 23.5 -4.5 11 14.7 NNE 15 19 8 10 1012.1 1012.0 0.0
16/01:30pm 28.9 24.8 -3.3 12 14.4 N 9 17 5 9 1012.4 1012.3 0.0
16/01:00pm 28.8 24.3 -3.4 12 14.4 NNE 11 17 6 9 1012.9 1012.8 0.0
16/12:30pm 27.8 23.3 -3.1 13 13.8 NNE 11 15 6 8 1013.5 1013.4 0.0
16/12:00pm 25.9 20.6 -3.6 14 12.8 NNE 15 17 8 9 1013.8 1013.7 0.0
16/11:30am 25.3 21.2 0.0 19 11.7 NNE 11 15 6 8 1014.2 1014.2 0.0
16/11:00am 24.1 19.8 1.1 22 10.8 N 13 17 7 9 1014.5 1014.5 0.0
16/10:30am 23.3 19.7 0.4 22 10.5 N 9 13 5 7 1014.8 1014.8 0.0
16/10:00am 22.7 19.5 0.5 23 10.2 N 7 11 4 6 1014.9 1014.9 0.0
16/09:30am 21.9 18.6 0.4 24 9.8 N 7 9 4 5 1015.1 1015.1 0.0
16/09:00am 19.4 16.4 1.9 31 8.0 NNE 7 9 4 5 1015.2 1015.2 0.0
16/08:30am 18.0 16.1 3.1 37 6.9 N 2 6 1 3 1015.6 1015.6 0.0
16/08:00am 17.5 13.9 3.0 38 6.7 N 11 15 6 8 1015.4 1015.4 0.0
16/07:30am 16.6 14.0 3.3 41 6.1 N 6 7 3 4 1015.7 1015.7 0.0
16/07:00am 15.0 13.1 4.7 50 4.8 N 4 6 2 3 1015.7 1015.7 0.0
16/06:30am 12.1 10.3 5.3 63 3.2 N 4 7 2 4 1015.9 1015.9 0.0
16/06:00am 12.2 9.7 4.7 60 3.4 N 7 9 4 5 1015.8 1015.8 0.0
16/05:30am 11.9 10.0 5.1 63 3.1 N 4 6 2 3 1016.0 1016.0 0.0
16/05:00am 12.2 10.1 5.6 64 3.1 NNW 6 11 3 6 1015.8 1015.8 0.0
16/04:30am 12.1 10.7 5.3 63 3.2 NNW 2 6 1 3 1015.9 1015.9 0.0
16/04:00am 12.4 10.2 5.1 61 3.4 NNW 6 7 3 4 1016.0 1016.0 0.0
16/03:30am 11.9 10.6 5.8 66 2.9 NNW 2 6 1 3 1016.0 1016.0 0.0
16/03:00am 11.8 10.7 5.2 64 3.0 CALM 0 0 0 0 1016.2 1016.2 0.0
16/02:30am 11.9 10.1 5.3 64 3.1 NNW 4 6 2 3 1016.5 1016.5 0.0
16/02:00am 12.0 10.9 5.0 62 3.2 CALM 0 0 0 0 1016.8 1016.8 0.0
16/01:30am 12.5 11.0 5.2 61 3.4 NNW 2 6 1 3 1017.2 1017.2 0.0
16/01:00am 13.0 11.5 5.2 59 3.6 NNW 2 4 1 2 1017.7 1017.6 0.0
16/12:30am 13.7 12.6 5.3 57 3.9 CALM 0 2 0 1 1017.8 1017.7 0.0
16/12:00am 14.4 12.2 5.2 54 4.3 NNW 6 9 3 5 1017.8 1017.7 0.0
 
Date/Time
EST
Temp
°C
App
Temp
°C
Dew
Point
°C
Rel
Hum
%
Delta-T
°C
Wind Press
QNH
hPa
Press
MSL
hPa
Rain since
9am
mm
Dir  Spd
km/h
Gust
km/h
Spd
kts
Gust
kts
15/11:30pm 14.5 12.4 5.6 55 4.2 NNW 6 9 3 5 1018.0 1017.9 0.0
15/11:00pm 14.7 13.2 5.0 52 4.6 NNW 2 7 1 4 1018.2 1018.1 0.0
15/10:30pm 16.0 14.9 5.3 49 5.1 CALM 0 0 0 0 1018.4 1018.3 0.0
15/10:00pm 18.0 16.8 4.6 41 6.4 CALM 0 0 0 0 1018.5 1018.4 0.0
15/09:30pm 17.5 16.4 5.1 44 6.0 CALM 0 0 0 0 1018.6 1018.5 0.0
15/09:00pm 18.4 17.3 5.3 42 6.4 CALM 0 0 0 0 1018.8 1018.7 0.0
15/08:30pm 19.4 17.3 5.8 41 6.7 NNW 6 6 3 3 1018.8 1018.7 0.0
15/08:00pm 20.2 18.3 4.7 36 7.5 NNW 4 6 2 3 1018.9 1018.8 0.0
15/07:30pm 20.9 17.9 4.0 33 8.2 NNW 9 11 5 6 1018.7 1018.6 0.0
15/07:00pm 20.5 17.2 2.3 30 8.5 N 9 11 5 6 1018.6 1018.5 0.0
15/06:30pm 22.1 18.3 1.7 26 9.5 N 11 11 6 6 1018.3 1018.2 0.0
15/06:00pm 23.3 19.5 1.6 24 10.2 N 11 13 6 7 1017.9 1017.8 0.0
15/05:30pm 25.1 21.3 1.9 22 11.1 N 11 13 6 7 1017.5 1017.4 0.0
15/05:00pm 27.0 22.8 1.4 19 12.3 NNE 13 19 7 10 1017.3 1017.3 0.0
15/04:30pm 27.9 24.8 1.4 18 12.8 NNE 7 11 4 6 1017.2 1017.2 0.0
15/04:00pm 28.3 25.1 0.9 17 13.2 NNE 7 15 4 8 1017.3 1017.3 0.0
15/03:30pm 28.2 25.0 0.9 17 13.1 NNE 7 11 4 6 1017.2 1017.2 0.0
15/03:00pm 28.2 25.2 0.9 17 13.1 N 6 9 3 5 1017.3 1017.3 0.0
15/02:30pm 29.0 26.0 0.7 16 13.6 N 6 9 3 5 1017.6 1017.5 0.0
15/02:00pm 28.6 25.5 0.3 16 13.5 N 6 17 3 9 1017.8 1017.7 0.0
15/01:30pm 27.8 24.8 0.5 17 13.0 N 6 15 3 8 1018.4 1018.3 0.0
15/01:00pm 27.3 24.3 1.7 19 12.4 E 7 13 4 7 1018.9 1018.8 0.0
15/12:30pm 26.8 23.4 2.0 20 12.0 NNE 9 15 5 8 1019.7 1019.6 0.0
15/12:00pm 25.3 23.5 3.3 24 10.8 NE 2 7 1 4 1020.3 1020.2 0.0
15/11:30am 24.0 20.7 4.4 28 9.7 NNE 11 17 6 9 1020.8 1020.7 0.0
15/11:00am 22.5 19.7 5.0 32 8.7 NNE 9 15 5 8 1021.2 1021.1 0.0
15/10:30am 20.1 17.1 6.1 40 7.0 N 11 17 6 9 1021.7 1021.6 0.0
15/10:00am 17.9 15.5 7.0 49 5.4 NNE 9 13 5 7 1022.3 1022.2 0.0
15/09:30am 17.2 15.4 7.0 51 5.1 NE 6 7 3 4 1022.8 1022.7 0.0
15/09:00am 15.4 14.4 7.4 59 4.0 ENE 2 6 1 3 1023.0 1022.9 0.0

Latest Capital City Observations: Canberra | Sydney | Melbourne | Brisbane | Adelaide | Perth | Hobart | Darwin

Other formats

Comma delimited format used in spreadsheet applications
http://www.bom.gov.au/fwo/IDN60901/IDN60901.94752.axf

JavaScript Object Notation format (JSON) in row-major order
http://www.bom.gov.au/fwo/IDN60901/IDN60901.94752.json

Data quality

Most of these data are generated automatically and are frequently updated. Quality checks on data are not normally performed. It is possible for incorrect values to appear. Refer to information at About Latest Weather Observations and please check the disclaimer before using these data.